createdAt,value
2018-12-26T00:00:57.311Z,3.13
2018-12-26T00:05:01.657Z,2.37
2018-12-26T00:09:46.382Z,2.50
2018-12-26T00:13:50.598Z,3.53
2018-12-26T00:17:54.876Z,5.00
2018-12-26T00:21:59.148Z,3.43
2018-12-26T00:26:03.422Z,2.57
2018-12-26T00:30:07.697Z,3.73
2018-12-26T00:34:11.906Z,3.47
2018-12-26T00:38:16.241Z,3.20
2018-12-26T00:42:20.546Z,4.40
2018-12-26T00:46:24.819Z,3.03
2018-12-26T00:50:29.109Z,3.57
2018-12-26T00:54:33.400Z,3.00
2018-12-26T00:58:37.606Z,3.80
2018-12-26T01:02:41.866Z,3.13
2018-12-26T01:06:46.169Z,3.93
2018-12-26T01:10:52.622Z,3.30
2018-12-26T01:14:58.545Z,4.43
2018-12-26T01:19:02.797Z,2.67
2018-12-26T01:23:07.127Z,6.07
2018-12-26T01:27:11.935Z,3.00
2018-12-26T01:31:16.221Z,4.37
2018-12-26T01:35:20.514Z,4.57
2018-12-26T01:39:24.779Z,3.10
2018-12-26T01:43:29.054Z,3.30
2018-12-26T01:47:33.402Z,3.17
2018-12-26T01:51:37.693Z,3.50
2018-12-26T01:55:41.976Z,5.37
2018-12-26T01:59:46.204Z,4.57
2018-12-26T02:03:50.538Z,4.13
2018-12-26T02:07:54.738Z,3.90
2018-12-26T02:11:59.398Z,5.17
2018-12-26T02:16:03.680Z,5.93
2018-12-26T02:20:47.363Z,4.33
2018-12-26T02:24:52.017Z,5.07
2018-12-26T02:28:56.313Z,5.43
2018-12-26T02:33:00.592Z,5.37
2018-12-26T02:37:04.886Z,5.60
2018-12-26T02:41:09.168Z,5.37
2018-12-26T02:45:13.417Z,5.77
2018-12-26T02:49:17.737Z,4.83
2018-12-26T02:53:22.005Z,4.70
2018-12-26T02:57:26.356Z,5.70
2018-12-26T03:01:30.620Z,7.67
2018-12-26T03:05:34.896Z,5.03
2018-12-26T03:09:39.183Z,4.77
2018-12-26T03:13:43.543Z,5.83
2018-12-26T03:17:47.917Z,5.80
2018-12-26T03:21:52.200Z,5.33
2018-12-26T03:25:56.503Z,4.87
2018-12-26T03:30:00.807Z,6.33
2018-12-26T03:34:05.057Z,4.73
2018-12-26T03:38:09.353Z,5.30
2018-12-26T03:42:13.588Z,5.40
2018-12-26T03:46:17.860Z,6.53
2018-12-26T03:50:22.112Z,6.70
2018-12-26T03:54:26.389Z,5.13
2018-12-26T03:58:30.715Z,6.33
2018-12-26T04:02:35.508Z,5.50
2018-12-26T04:06:39.711Z,5.97
2018-12-26T04:10:43.986Z,5.80
2018-12-26T04:14:48.473Z,5.83
2018-12-26T04:18:52.695Z,6.10
2018-12-26T04:22:57.057Z,5.47
2018-12-26T04:27:15.489Z,6.80
2018-12-26T04:31:14.648Z,4.90
2018-12-26T04:35:18.958Z,5.43
2018-12-26T04:39:23.223Z,5.43
2018-12-26T04:43:27.495Z,6.47
2018-12-26T04:47:31.741Z,5.90
2018-12-26T04:51:36.034Z,5.37
2018-12-26T04:55:40.306Z,5.83
2018-12-26T04:59:44.916Z,5.93
2018-12-26T05:03:49.222Z,5.23
2018-12-26T05:07:53.542Z,5.30
2018-12-26T05:11:57.801Z,5.77
2018-12-26T05:16:02.069Z,5.70
2018-12-26T05:20:06.484Z,6.83
2018-12-26T05:24:10.762Z,5.50
2018-12-26T05:28:15.087Z,5.33
2018-12-26T05:32:19.315Z,6.37
2018-12-26T05:36:23.618Z,6.47
2018-12-26T05:40:27.846Z,6.13
2018-12-26T05:44:32.138Z,5.33
2018-12-26T05:48:36.461Z,5.47
2018-12-26T05:52:40.716Z,6.23
2018-12-26T05:56:44.977Z,5.87
2018-12-26T06:00:49.255Z,5.67
2018-12-26T06:04:53.527Z,6.37
2018-12-26T06:08:57.812Z,6.87
2018-12-26T06:13:02.102Z,5.10
2018-12-26T06:17:06.387Z,5.63
2018-12-26T06:21:10.639Z,5.17
2018-12-26T06:25:14.966Z,4.87
2018-12-26T06:29:19.238Z,4.17
2018-12-26T06:33:23.515Z,4.40
2018-12-26T06:37:27.799Z,5.33
2018-12-26T06:41:32.077Z,4.67
2018-12-26T06:45:36.358Z,4.73
2018-12-26T06:49:40.647Z,4.93
2018-12-26T06:53:44.899Z,5.00
2018-12-26T06:57:49.206Z,8.53
2018-12-26T07:01:53.513Z,4.67
2018-12-26T07:05:57.796Z,4.67
2018-12-26T07:10:02.052Z,4.83
2018-12-26T07:14:06.524Z,5.07
2018-12-26T07:18:10.853Z,4.43
2018-12-26T07:22:15.142Z,6.80
2018-12-26T07:26:19.425Z,4.97
2018-12-26T07:30:23.715Z,4.27
2018-12-26T07:34:28.015Z,5.30
2018-12-26T07:38:32.224Z,4.30
2018-12-26T07:42:36.536Z,5.13
2018-12-26T07:46:40.770Z,4.47
2018-12-26T07:50:45.203Z,4.87
2018-12-26T07:54:49.472Z,5.73
2018-12-26T07:58:53.755Z,7.03
2018-12-26T08:02:58.003Z,6.80
2018-12-26T08:07:02.323Z,7.43
2018-12-26T08:11:06.608Z,3.90
2018-12-26T08:15:10.958Z,5.23
2018-12-26T08:19:15.323Z,4.73
2018-12-26T08:23:19.657Z,4.40
2018-12-26T08:27:24.066Z,5.10
2018-12-26T08:31:28.328Z,2.97
2018-12-26T08:35:51.536Z,3.60
2018-12-26T08:39:55.779Z,3.23
2018-12-26T08:44:00.107Z,3.13
2018-12-26T08:48:04.428Z,4.10
2018-12-26T08:52:08.677Z,4.17
2018-12-26T08:56:12.976Z,4.40
2018-12-26T09:00:17.203Z,4.73
2018-12-26T09:04:21.516Z,4.93
2018-12-26T09:08:25.731Z,3.73
2018-12-26T09:12:30.029Z,4.73
2018-12-26T09:16:34.293Z,4.43
2018-12-26T09:20:38.565Z,4.13
2018-12-26T09:24:42.848Z,3.83
2018-12-26T09:28:47.116Z,3.80
2018-12-26T09:32:51.352Z,3.80
2018-12-26T09:36:55.638Z,4.23
2018-12-26T09:40:59.891Z,3.83
2018-12-26T09:45:04.248Z,6.37
2018-12-26T09:49:08.505Z,5.57
2018-12-26T09:53:12.839Z,4.10
2018-12-26T09:57:17.114Z,4.67
2018-12-26T10:01:21.388Z,5.33
2018-12-26T10:05:25.664Z,3.80
2018-12-26T10:09:29.969Z,4.80
2018-12-26T10:13:34.257Z,4.83
2018-12-26T10:17:38.607Z,4.23
2018-12-26T10:21:42.858Z,4.83
2018-12-26T10:25:47.163Z,4.17
2018-12-26T10:29:51.441Z,5.10
2018-12-26T10:33:55.717Z,4.70
2018-12-26T10:37:59.959Z,4.30
2018-12-26T10:42:04.246Z,5.20
2018-12-26T10:46:08.572Z,5.97
2018-12-26T10:50:13.207Z,4.03
2018-12-26T10:54:56.858Z,4.63
2018-12-26T10:59:09.706Z,5.20
2018-12-26T11:03:07.280Z,4.87
2018-12-26T11:07:11.488Z,4.90
2018-12-26T11:11:15.780Z,5.43
2018-12-26T11:15:20.085Z,5.17
2018-12-26T11:19:24.329Z,4.57
2018-12-26T11:23:31.535Z,4.87
2018-12-26T11:27:35.867Z,4.47
2018-12-26T11:31:40.169Z,4.63
2018-12-26T11:35:44.829Z,4.87
2018-12-26T11:39:49.079Z,5.37
2018-12-26T11:43:53.358Z,4.47
2018-12-26T11:47:57.854Z,4.27
2018-12-26T11:52:02.427Z,3.87
2018-12-26T11:56:06.730Z,4.73
2018-12-26T12:00:11.005Z,6.07
2018-12-26T12:08:40.273Z,3.83
2018-12-26T12:12:44.551Z,6.57
2018-12-26T12:16:49.037Z,4.07
2018-12-26T12:20:53.268Z,5.23
2018-12-26T12:24:58.148Z,5.10
2018-12-26T12:29:02.382Z,6.23
2018-12-26T12:33:06.669Z,5.13
2018-12-26T12:37:31.398Z,5.20
2018-12-26T12:41:35.668Z,5.60
2018-12-26T12:45:40.046Z,4.60
2018-12-26T12:50:04.888Z,4.57
2018-12-26T12:54:09.315Z,4.53
2018-12-26T12:58:13.624Z,5.20
2018-12-26T13:03:00.490Z,4.53
2018-12-26T13:07:03.563Z,5.57
2018-12-26T13:11:07.881Z,5.13
2018-12-26T13:15:12.152Z,4.03
2018-12-26T13:19:16.551Z,5.63
2018-12-26T13:23:21.017Z,6.33
2018-12-26T13:27:25.359Z,6.03
2018-12-26T13:31:29.782Z,5.60
2018-12-26T13:35:34.061Z,6.03
2018-12-26T13:39:38.379Z,5.40
2018-12-26T13:43:42.689Z,4.90
2018-12-26T13:47:47.018Z,5.77
2018-12-26T13:51:51.302Z,5.93
2018-12-26T13:55:55.592Z,6.30
2018-12-26T14:00:02.445Z,4.73
2018-12-26T14:04:05.841Z,5.67
2018-12-26T14:08:10.105Z,6.43
2018-12-26T14:12:14.353Z,5.63
2018-12-26T14:16:18.622Z,6.27
2018-12-26T14:20:22.949Z,5.80
2018-12-26T14:24:27.180Z,6.70
2018-12-26T14:28:31.471Z,7.23
2018-12-26T14:32:35.704Z,6.20
2018-12-26T14:36:40.018Z,9.87
2018-12-26T14:41:04.188Z,10.33
2018-12-26T14:44:51.022Z,5.70
2018-12-26T14:48:55.323Z,4.27
2018-12-26T14:52:59.635Z,4.40
2018-12-26T14:57:03.977Z,3.50
2018-12-26T15:01:08.211Z,2.50
2018-12-26T15:05:12.516Z,4.37
2018-12-26T15:09:16.757Z,2.90
2018-12-26T15:13:21.215Z,3.53
2018-12-26T15:17:25.507Z,5.97
2018-12-26T15:21:29.749Z,3.77
2018-12-26T15:25:34.108Z,3.37
2018-12-26T15:29:38.363Z,4.30
2018-12-26T15:34:01.695Z,3.87
2018-12-26T15:38:05.914Z,3.83
2018-12-26T15:42:10.214Z,4.03
2018-12-26T15:46:14.494Z,5.47
2018-12-26T15:50:18.861Z,5.50
2018-12-26T15:54:23.101Z,3.73
2018-12-26T15:58:27.475Z,3.87
2018-12-26T16:02:31.804Z,4.10
2018-12-26T16:06:36.135Z,5.90
2018-12-26T16:10:40.471Z,5.17
2018-12-26T16:14:45.082Z,4.30
2018-12-26T16:18:49.364Z,5.03
2018-12-26T16:22:53.624Z,5.40
2018-12-26T16:26:57.928Z,4.87
2018-12-26T16:31:02.338Z,5.20
2018-12-26T16:35:08.192Z,4.40
2018-12-26T16:39:12.534Z,5.17
2018-12-26T16:43:16.841Z,6.17
2018-12-26T16:47:21.099Z,5.40
2018-12-26T16:51:25.473Z,5.53
2018-12-26T16:55:29.758Z,6.20
2018-12-26T16:59:55.734Z,5.07
2018-12-26T17:04:00.038Z,6.37
2018-12-26T17:08:04.400Z,5.57
2018-12-26T17:12:08.907Z,8.47
2018-12-26T17:16:14.899Z,4.93
2018-12-26T17:20:19.198Z,5.77
2018-12-26T17:24:23.508Z,5.57
2018-12-26T17:28:27.891Z,6.47
2018-12-26T17:32:32.199Z,4.77
2018-12-26T17:36:36.589Z,6.27
2018-12-26T17:40:40.842Z,5.80
2018-12-26T17:44:45.299Z,6.10
2018-12-26T17:48:49.544Z,5.77
2018-12-26T17:52:53.948Z,8.33
2018-12-26T17:57:19.870Z,6.53
2018-12-26T18:02:02.215Z,7.30
2018-12-26T18:06:06.534Z,7.67
2018-12-26T18:10:10.999Z,6.27
2018-12-26T18:14:37.751Z,6.30
2018-12-26T18:18:21.480Z,6.30
2018-12-26T18:22:25.730Z,5.67
2018-12-26T18:26:30.079Z,6.70
2018-12-26T18:30:34.431Z,8.80
2018-12-26T18:34:38.714Z,7.20
2018-12-26T18:38:43.018Z,5.93
2018-12-26T18:42:47.326Z,6.87
2018-12-26T18:46:51.645Z,8.73
2018-12-26T18:50:55.889Z,6.43
2018-12-26T18:55:00.168Z,8.40
2018-12-26T18:59:04.439Z,6.40
2018-12-26T19:03:08.875Z,9.17
2018-12-26T19:07:13.197Z,5.87
2018-12-26T19:11:17.527Z,6.57
2018-12-26T19:15:21.798Z,11.37
2018-12-26T19:19:26.105Z,8.00
2018-12-26T19:23:30.422Z,8.67
2018-12-26T19:27:34.734Z,6.80
2018-12-26T19:31:39.732Z,6.90
2018-12-26T19:35:45.089Z,8.03
2018-12-26T19:39:49.417Z,7.87
2018-12-26T19:43:53.652Z,9.57
2018-12-26T19:47:58.136Z,6.83
2018-12-26T19:52:02.392Z,7.80
2018-12-26T19:56:06.761Z,8.37
2018-12-26T20:00:11.656Z,8.97
2018-12-26T20:08:32.483Z,10.70
2018-12-26T20:12:36.812Z,8.50
2018-12-26T20:16:41.103Z,9.03
2018-12-26T20:20:45.367Z,9.90
2018-12-26T20:24:49.690Z,9.57
2018-12-26T20:28:53.991Z,10.20
2018-12-26T20:32:58.444Z,9.73
2018-12-26T20:37:03.375Z,9.10
2018-12-26T20:41:07.683Z,7.53
2018-12-26T20:45:11.952Z,6.87
2018-12-26T20:49:16.222Z,8.37
2018-12-26T20:53:20.546Z,6.60
2018-12-26T20:57:24.783Z,7.83
2018-12-26T21:01:29.177Z,7.03
2018-12-26T21:05:33.481Z,8.97
2018-12-26T21:09:37.810Z,8.53
2018-12-26T21:13:43.795Z,7.40
2018-12-26T21:17:48.186Z,6.80
2018-12-26T21:21:52.494Z,6.93
2018-12-26T21:25:56.706Z,8.07
2018-12-26T21:30:01.034Z,6.17
2018-12-26T21:34:05.273Z,7.80
2018-12-26T21:38:10.055Z,7.70
2018-12-26T21:42:14.356Z,8.80
2018-12-26T21:46:18.659Z,11.43
2018-12-26T21:50:22.926Z,10.97
2018-12-26T21:54:27.266Z,11.97
2018-12-26T21:58:31.486Z,9.50
2018-12-26T22:02:35.830Z,9.43
2018-12-26T22:06:40.114Z,8.10
2018-12-26T22:10:44.835Z,11.93
2018-12-26T22:14:49.114Z,10.77
2018-12-26T22:18:53.467Z,10.10
2018-12-26T22:22:57.738Z,9.80
2018-12-26T22:27:02.012Z,11.10
2018-12-26T22:31:06.281Z,10.00
2018-12-26T22:35:10.964Z,10.53
2018-12-26T22:39:15.253Z,10.50
2018-12-26T22:43:19.610Z,10.50
2018-12-26T22:47:23.899Z,10.57
2018-12-26T22:51:28.191Z,12.17
2018-12-26T22:55:32.540Z,10.53
2018-12-26T22:59:36.814Z,10.80
2018-12-26T23:03:41.983Z,11.03
2018-12-26T23:07:46.243Z,10.87
2018-12-26T23:11:50.533Z,12.13
2018-12-26T23:15:54.799Z,11.27
2018-12-26T23:19:59.097Z,12.33
2018-12-26T23:24:03.323Z,12.23
2018-12-26T23:28:07.626Z,11.80
2018-12-26T23:32:11.944Z,10.40
2018-12-26T23:36:16.260Z,10.17
2018-12-26T23:40:20.617Z,10.13
2018-12-26T23:44:24.916Z,13.00
2018-12-26T23:48:29.200Z,10.03
2018-12-26T23:52:54.109Z,11.03
2018-12-26T23:56:58.432Z,9.70
